Decoded Metar for KRBD (DALLAS/REDBIRD in TX, USA) (IATA:RBD) | Meteo·Mobile Aviation Weather
aviador You're here:

KRBD Decoded Metar

DALLAS/REDBIRD in TX, USA
Report Time2019-07-16 11:53:00
UTC Time2019-07-16 12:02:15
Flight Rules vfr VFR
Wind190° at 10 kt
W.Decomp.*RWY 17: 9.7 kt HW 2.4 kt RCW
RWY 13: 5.9 kt HW 8.1 kt RCW
Visibility9999 m
Phenomena:N/A
Clouds:N/A
Expected CloudBase > 1,200 ft AGL from Temp-Dew spread
CeilingNone
Temp26°C (ISA +12)
Dew Point23°C (84% RH)
QNH1014 hPa
Density Alt2,428 ft
Elevation666 ft
Report Wrong Elevation
Raw Report
KRBD 161153Z 19010KT 10SM CLR 26/23 A2994 RMK AO2 SLP129 T02560228
10272 20256 53015=

Extra information for KRBD:More info

Metar Taf Metar & Taf Last 4 Metars F.Rules Stats Wind Profile Meteogram Temp Stats Airport Information Weather charts Add Link Nearby VenuesMetar ALERT Operation Metar Decoded Social comments

AIRNAV info for KRBD